createdAt,value
2019-05-13T06:55:24.793Z,99.90
2019-05-13T06:57:55.837Z,99.90
2019-05-13T07:00:27.244Z,99.90
2019-05-13T07:02:58.273Z,99.90
2019-05-13T07:05:31.638Z,99.90
2019-05-13T07:08:02.255Z,99.90
2019-05-13T07:10:33.305Z,99.90
2019-05-13T07:13:04.637Z,99.90
2019-05-13T07:15:36.025Z,99.90
2019-05-13T07:18:07.017Z,99.90
2019-05-13T07:20:38.040Z,99.90
2019-05-13T07:23:11.898Z,99.90
2019-05-13T07:25:42.227Z,99.90
2019-05-13T07:28:13.498Z,99.90
2019-05-13T07:30:44.886Z,99.90
2019-05-13T07:33:16.126Z,99.90
2019-05-13T07:35:47.370Z,99.90
2019-05-13T07:38:18.623Z,99.90
2019-05-13T07:40:53.585Z,99.90
2019-05-13T07:43:24.549Z,99.90
2019-05-13T07:45:55.543Z,99.90
2019-05-13T07:48:28.047Z,99.90
2019-05-13T07:51:00.680Z,99.90
2019-05-13T07:53:32.315Z,99.90
2019-05-13T07:56:03.532Z,99.90
2019-05-13T07:58:37.612Z,99.90
2019-05-13T08:01:07.625Z,99.90
2019-05-13T08:03:38.677Z,99.90
2019-05-13T08:06:11.190Z,99.90
2019-05-13T08:08:42.362Z,99.90
2019-05-13T08:11:13.343Z,99.90
2019-05-13T08:13:44.780Z,99.90
2019-05-13T08:16:15.880Z,99.90
2019-05-13T08:18:46.984Z,99.90
2019-05-13T08:21:18.006Z,99.90
2019-05-13T08:23:49.060Z,99.90
2019-05-13T08:26:21.666Z,99.90
2019-05-13T08:29:01.262Z,99.90
2019-05-13T08:31:26.010Z,99.90
2019-05-13T08:33:57.452Z,99.90
2019-05-13T08:36:28.459Z,99.90
2019-05-13T08:39:02.520Z,99.90
2019-05-13T08:41:33.713Z,99.90
2019-05-13T08:44:04.774Z,99.90
2019-05-13T08:46:35.773Z,99.90
2019-05-13T08:49:06.786Z,99.90
2019-05-13T08:51:37.844Z,99.90
2019-05-13T08:54:11.409Z,99.90
2019-05-13T08:56:41.838Z,99.90
2019-05-13T08:59:13.183Z,99.90
2019-05-13T09:01:44.262Z,99.90
2019-05-13T09:04:15.213Z,99.90
2019-05-13T09:06:46.436Z,99.90
2019-05-13T09:09:17.383Z,99.90
2019-05-13T09:11:48.372Z,99.90
2019-05-13T09:14:21.763Z,99.90
2019-05-13T09:16:52.518Z,99.90
2019-05-13T09:19:24.102Z,99.90
2019-05-13T09:21:55.491Z,99.90
2019-05-13T09:24:34.165Z,99.90
2019-05-13T09:27:01.707Z,99.90
2019-05-13T09:29:32.788Z,99.90
2019-05-13T09:32:04.264Z,99.90
2019-05-13T09:34:35.853Z,99.90
2019-05-13T09:37:06.892Z,99.90
2019-05-13T09:39:38.230Z,99.90
2019-05-13T09:42:09.238Z,99.90
2019-05-13T09:44:41.914Z,99.00
2019-05-13T09:47:12.937Z,99.70
2019-05-13T09:49:45.845Z,97.00
2019-05-13T09:52:16.896Z,97.00
2019-05-13T09:54:47.927Z,97.10
2019-05-13T09:57:21.890Z,97.90
2019-05-13T09:59:52.541Z,96.40
2019-05-13T10:02:23.940Z,94.40
2019-05-13T10:04:54.958Z,96.00
2019-05-13T10:07:26.414Z,95.30
2019-05-13T10:09:57.383Z,93.90
2019-05-13T10:12:28.387Z,94.50
2019-05-13T10:15:02.155Z,93.20
2019-05-13T10:17:32.450Z,94.90
2019-05-13T10:20:04.357Z,95.80
2019-05-13T10:22:35.831Z,94.90
2019-05-13T10:25:08.344Z,92.60
2019-05-13T10:27:41.949Z,93.90
2019-05-13T10:30:13.621Z,92.90
2019-05-13T10:32:44.588Z,93.40
2019-05-13T10:35:15.755Z,92.90
2019-05-13T10:37:47.077Z,92.20
2019-05-13T10:40:18.421Z,91.50
2019-05-13T10:42:52.211Z,93.40
2019-05-13T10:45:22.413Z,92.90
2019-05-13T10:47:53.491Z,92.20
2019-05-13T10:50:27.612Z,93.30
2019-05-13T10:52:57.571Z,93.80
2019-05-13T10:55:28.744Z,92.30
2019-05-13T10:58:02.447Z,91.50
2019-05-13T11:00:45.360Z,90.10
2019-05-13T11:03:16.324Z,91.50
2019-05-13T11:05:48.733Z,90.00
2019-05-13T11:08:22.245Z,90.10
2019-05-13T11:10:53.331Z,91.40
2019-05-13T11:13:25.298Z,89.90
2019-05-13T11:15:58.159Z,90.20
2019-05-13T11:18:29.354Z,90.30
2019-05-13T11:21:02.394Z,90.90
2019-05-13T11:23:34.066Z,89.40
2019-05-13T11:26:05.617Z,91.50
2019-05-13T11:28:37.314Z,91.10
2019-05-13T11:31:08.373Z,90.90
2019-05-13T11:33:42.273Z,89.30
2019-05-13T11:36:18.913Z,84.00
2019-05-13T11:38:47.246Z,81.60
2019-05-13T11:41:18.470Z,84.10
2019-05-13T11:44:10.995Z,86.40
2019-05-13T11:46:22.823Z,81.50
2019-05-13T11:48:54.031Z,78.30
2019-05-13T11:51:25.107Z,86.50
2019-05-13T11:53:56.064Z,84.80
2019-05-13T11:56:27.625Z,81.10
2019-05-13T11:58:59.176Z,82.40
2019-05-13T12:01:32.658Z,76.90
2019-05-13T12:04:03.071Z,86.70
2019-05-13T12:06:34.273Z,84.80
2019-05-13T12:09:08.414Z,84.20
2019-05-13T12:11:39.529Z,80.80
2019-05-13T12:14:37.379Z,82.50
2019-05-13T12:16:43.315Z,75.40
2019-05-13T12:19:14.731Z,74.20
2019-05-13T12:21:46.864Z,75.90
2019-05-13T12:24:18.131Z,74.20
2019-05-13T12:26:52.845Z,75.30
2019-05-13T12:29:21.726Z,76.30
2019-05-13T12:32:04.965Z,74.50
2019-05-13T12:34:40.619Z,77.90
2019-05-13T12:37:09.023Z,76.10
2019-05-13T12:39:43.016Z,75.80
2019-05-13T12:42:13.750Z,73.00
2019-05-13T12:45:00.304Z,72.50
2019-05-13T12:47:18.371Z,78.70
2019-05-13T12:49:49.479Z,73.00
2019-05-13T12:52:22.910Z,76.30
2019-05-13T12:54:53.653Z,69.60
2019-05-13T12:57:24.755Z,68.40
2019-05-13T12:59:56.617Z,71.10
2019-05-13T13:02:28.285Z,73.40
2019-05-13T13:05:13.359Z,70.00
2019-05-13T13:07:40.257Z,74.60
2019-05-13T13:10:06.442Z,73.00
2019-05-13T13:12:37.438Z,76.90
2019-05-13T13:15:33.024Z,69.30
2019-05-13T13:17:41.747Z,67.00
2019-05-13T13:20:15.413Z,70.60
2019-05-13T13:22:46.783Z,69.80
2019-05-13T13:25:18.128Z,70.70
2019-05-13T13:28:11.412Z,69.20
2019-05-13T13:30:23.252Z,71.00
2019-05-13T13:32:55.079Z,70.20
2019-05-13T13:35:26.938Z,71.00
2019-05-13T13:37:58.007Z,70.80
2019-05-13T13:40:30.555Z,66.90
2019-05-13T13:43:05.231Z,68.10
2019-05-13T13:46:06.090Z,65.80
2019-05-13T13:48:07.434Z,66.80
2019-05-13T13:50:38.466Z,65.50
2019-05-13T13:53:13.896Z,69.00
2019-05-13T13:55:44.253Z,66.10
2019-05-13T13:58:15.190Z,66.00
2019-05-13T14:03:19.636Z,66.10
2019-05-13T14:05:53.568Z,65.10
2019-05-13T14:06:59.246Z,66.00
2019-05-13T14:08:23.616Z,62.90
2019-05-13T14:10:55.330Z,65.10
2019-05-13T14:13:26.414Z,64.80
2019-05-13T14:15:57.347Z,64.20
2019-05-13T14:18:28.481Z,68.70
2019-05-13T14:20:59.476Z,65.30
2019-05-13T14:23:31.766Z,67.80
2019-05-13T14:26:03.117Z,66.30
2019-05-13T14:28:34.300Z,67.00
2019-05-13T14:31:05.394Z,70.50
2019-05-13T14:33:36.862Z,66.60
2019-05-13T14:36:07.913Z,66.10
2019-05-13T14:38:39.020Z,69.60
2019-05-13T14:41:12.405Z,67.00
2019-05-13T14:43:43.162Z,70.50
2019-05-13T14:46:14.080Z,68.90
2019-05-13T14:48:45.072Z,67.20
2019-05-13T14:51:18.157Z,67.60
2019-05-13T14:53:51.784Z,65.90
2019-05-13T14:56:22.335Z,70.50
2019-05-13T14:58:53.377Z,68.60
2019-05-13T15:01:24.374Z,67.10
2019-05-13T15:03:56.073Z,65.90
2019-05-13T15:06:27.629Z,67.40
2019-05-13T15:08:58.749Z,64.30
2019-05-13T15:11:32.211Z,65.30
2019-05-13T15:14:03.197Z,64.50
2019-05-13T15:16:34.596Z,67.20
2019-05-13T15:19:05.629Z,64.40
2019-05-13T15:21:37.017Z,66.30
2019-05-13T15:24:08.294Z,65.10
2019-05-13T15:26:39.379Z,66.00
2019-05-13T15:29:11.376Z,71.70
2019-05-13T15:31:42.991Z,68.80
2019-05-13T15:34:14.315Z,68.30
2019-05-13T15:36:45.464Z,68.00
2019-05-13T15:39:16.540Z,67.90
2019-05-13T15:41:47.686Z,69.40
2019-05-13T15:44:21.922Z,67.50
2019-05-13T15:46:52.533Z,66.60
2019-05-13T15:49:23.608Z,71.10
2019-05-13T15:51:54.610Z,70.70
2019-05-13T15:54:25.655Z,71.70
2019-05-13T15:56:56.636Z,70.90
2019-05-13T15:59:27.984Z,67.50
2019-05-13T16:02:01.267Z,64.60
2019-05-13T16:04:52.728Z,64.50
2019-05-13T16:07:16.933Z,64.60
2019-05-13T16:09:47.918Z,63.30
2019-05-13T16:12:21.308Z,64.30
2019-05-13T16:14:52.256Z,64.50
2019-05-13T16:17:37.978Z,66.70
2019-05-13T16:19:56.382Z,63.10
2019-05-13T16:22:28.117Z,64.50
2019-05-13T16:25:00.903Z,63.30
2019-05-13T16:27:31.868Z,64.80
2019-05-13T16:30:02.969Z,64.40
2019-05-13T16:32:34.968Z,63.80
2019-05-13T16:35:06.364Z,64.70
2019-05-13T16:37:37.428Z,60.60
2019-05-13T16:40:12.095Z,63.80
2019-05-13T16:42:43.453Z,63.50
2019-05-13T16:45:14.597Z,59.30
2019-05-13T16:47:56.635Z,60.20
2019-05-13T16:50:19.358Z,60.70
2019-05-13T16:52:51.154Z,60.30
2019-05-13T16:55:22.910Z,62.20
2019-05-13T16:57:53.920Z,63.10
2019-05-13T17:00:25.015Z,60.60
2019-05-13T17:02:56.010Z,59.90
2019-05-13T17:05:27.299Z,62.10
2019-05-13T17:07:58.369Z,58.30
2019-05-13T17:10:31.608Z,58.70
2019-05-13T17:13:03.124Z,59.00
2019-05-13T17:15:34.231Z,59.10
2019-05-13T17:18:11.703Z,58.50
2019-05-13T17:20:37.995Z,61.20
2019-05-13T17:23:12.455Z,59.80
2019-05-13T17:25:43.801Z,60.10
2019-05-13T17:28:15.256Z,61.00
2019-05-13T17:30:46.988Z,62.10
2019-05-13T17:33:18.256Z,61.80
2019-05-13T17:35:49.229Z,61.70
2019-05-13T17:38:21.823Z,62.30
2019-05-13T17:41:04.514Z,63.00
2019-05-13T17:43:35.468Z,62.60
2019-05-13T17:46:06.574Z,63.30
2019-05-13T17:48:37.632Z,63.70
2019-05-13T17:51:08.763Z,63.70
2019-05-13T17:53:41.271Z,64.60
2019-05-13T17:56:12.610Z,63.80
2019-05-13T17:58:44.049Z,63.00
2019-05-13T18:01:15.100Z,65.10
2019-05-13T18:03:46.106Z,65.00
2019-05-13T18:06:28.646Z,64.60
2019-05-13T18:09:01.244Z,64.50
2019-05-13T18:11:33.644Z,66.00
2019-05-13T18:14:04.712Z,65.30
2019-05-13T18:16:35.761Z,64.30
2019-05-13T18:19:07.570Z,66.50
2019-05-13T18:21:38.913Z,66.30
2019-05-13T18:24:11.942Z,63.70
2019-05-13T18:26:43.597Z,64.10
2019-05-13T18:29:14.584Z,65.10
2019-05-13T18:31:45.655Z,65.70
2019-05-13T18:34:17.128Z,66.50
2019-05-13T18:36:48.137Z,67.20
2019-05-13T18:39:21.455Z,68.40
2019-05-13T18:41:52.312Z,70.10
2019-05-13T18:44:23.403Z,68.90
2019-05-13T18:46:54.314Z,69.10
2019-05-13T18:49:25.933Z,70.30
2019-05-13T18:51:56.869Z,71.10
2019-05-13T18:54:27.889Z,72.10
2019-05-13T18:57:01.394Z,72.70
2019-05-13T18:59:32.299Z,73.20
2019-05-13T19:02:03.371Z,74.20
2019-05-13T19:04:34.417Z,75.30
2019-05-13T19:07:07.750Z,75.90
2019-05-13T19:09:38.473Z,76.70
2019-05-13T19:12:11.644Z,76.90
2019-05-13T19:14:42.334Z,78.50
2019-05-13T19:17:13.317Z,80.20
2019-05-13T19:19:44.382Z,80.70
2019-05-13T19:22:15.424Z,81.40
2019-05-13T19:24:46.397Z,83.00
2019-05-13T19:27:17.842Z,84.40
2019-05-13T19:29:49.349Z,83.80
2019-05-13T19:32:21.894Z,84.00
2019-05-13T19:34:53.208Z,86.10
2019-05-13T19:37:24.513Z,85.20
2019-05-13T19:39:55.970Z,87.20
2019-05-13T19:42:26.944Z,90.30
2019-05-13T19:44:57.962Z,89.60
2019-05-13T19:47:28.983Z,89.10
2019-05-13T19:50:02.231Z,90.00
2019-05-13T19:52:32.766Z,90.80
2019-05-13T19:55:04.669Z,90.60
2019-05-13T19:57:36.460Z,91.40
2019-05-13T20:00:10.306Z,91.10
2019-05-13T20:02:42.170Z,91.50
2019-05-13T20:05:13.433Z,91.60
2019-05-13T20:07:44.382Z,91.80
2019-05-13T20:10:16.171Z,92.80
2019-05-13T20:12:47.399Z,93.00
2019-05-13T20:15:18.472Z,92.80
2019-05-13T20:17:51.966Z,93.60
2019-05-13T20:20:22.792Z,93.80
2019-05-13T20:22:53.772Z,94.40
2019-05-13T20:25:24.733Z,94.80
2019-05-13T20:27:56.009Z,95.10
2019-05-13T20:30:27.807Z,95.30
2019-05-13T20:32:59.180Z,95.70
2019-05-13T20:35:31.296Z,96.10
2019-05-13T20:38:02.834Z,96.60
2019-05-13T20:40:33.903Z,97.20
2019-05-13T20:43:04.940Z,97.30
2019-05-13T20:45:36.551Z,98.30
2019-05-13T20:48:08.008Z,98.30
2019-05-13T20:50:41.105Z,98.70
2019-05-13T20:53:11.821Z,98.80
2019-05-13T20:55:43.293Z,99.20
2019-05-13T20:58:14.913Z,99.50
2019-05-13T21:00:45.834Z,99.70
2019-05-13T21:03:16.866Z,99.90
2019-05-13T21:05:47.852Z,99.90
2019-05-13T21:08:21.499Z,99.90
2019-05-13T21:10:52.077Z,99.90
2019-05-13T21:13:23.097Z,99.90
2019-05-13T21:15:54.186Z,99.90
2019-05-13T21:18:25.285Z,99.90
2019-05-13T21:20:56.316Z,99.90
2019-05-13T21:23:27.379Z,99.90
2019-05-13T21:26:01.924Z,99.90
2019-05-13T21:28:34.011Z,99.90
2019-05-13T21:31:04.923Z,99.90
2019-05-13T21:33:35.851Z,99.90
2019-05-13T21:36:06.846Z,99.90
2019-05-13T21:38:38.439Z,99.90
2019-05-13T21:41:11.655Z,99.90
2019-05-13T21:43:42.609Z,99.90
2019-05-13T21:46:13.623Z,99.90
2019-05-13T21:48:44.964Z,99.90
2019-05-13T21:51:16.083Z,99.90
2019-05-13T21:53:47.374Z,99.90
2019-05-13T21:56:18.586Z,99.90
2019-05-13T21:58:51.987Z,99.90
2019-05-13T22:01:23.379Z,99.90
2019-05-13T22:03:54.673Z,99.90
2019-05-13T22:06:25.856Z,99.90
2019-05-13T22:08:56.811Z,99.90
2019-05-13T22:11:28.528Z,99.90
2019-05-13T22:14:01.702Z,99.90
2019-05-13T22:16:43.654Z,99.90
2019-05-13T22:19:14.596Z,99.90
2019-05-13T22:21:45.920Z,99.90
2019-05-13T22:24:17.526Z,99.90
2019-05-13T22:26:51.103Z,99.90
2019-05-13T22:29:23.646Z,99.90
2019-05-13T22:31:54.710Z,99.90
2019-05-13T22:34:25.634Z,99.90
2019-05-13T22:36:56.724Z,99.90
2019-05-13T22:39:27.667Z,99.90
2019-05-13T22:41:58.689Z,99.90
2019-05-13T22:44:32.225Z,99.90
2019-05-13T22:47:02.762Z,99.90
2019-05-13T22:49:33.755Z,99.90
2019-05-13T22:52:04.767Z,99.90
2019-05-13T22:54:35.795Z,99.90
2019-05-13T22:57:06.771Z,99.90
2019-05-13T22:59:37.795Z,99.90
2019-05-13T23:02:08.721Z,99.90
2019-05-13T23:04:41.706Z,99.90
2019-05-13T23:07:12.358Z,99.90
2019-05-13T23:09:43.349Z,99.90
2019-05-13T23:12:14.407Z,99.90
2019-05-13T23:14:45.480Z,99.90
2019-05-13T23:17:16.897Z,99.90
2019-05-13T23:19:47.921Z,99.90
2019-05-13T23:22:18.931Z,99.90
2019-05-13T23:24:49.853Z,99.90
2019-05-13T23:27:22.009Z,99.90
2019-05-13T23:29:54.307Z,99.90
2019-05-13T23:32:25.377Z,99.90
2019-05-13T23:34:56.387Z,99.90
2019-05-13T23:37:27.390Z,99.90
2019-05-13T23:39:58.322Z,99.90
2019-05-13T23:42:31.785Z,99.90
2019-05-13T23:45:02.611Z,99.90
2019-05-13T23:47:34.663Z,99.90
2019-05-13T23:50:05.801Z,99.90
2019-05-13T23:52:36.978Z,99.90
2019-05-13T23:55:08.496Z,99.90
2019-05-13T23:57:42.121Z,99.90
